createdAt,value
2022-12-13T00:01:50.354Z,15.30
2022-12-13T00:04:19.616Z,13.20
2022-12-13T00:06:49.085Z,15.50
2022-12-13T00:09:18.683Z,12.90
2022-12-13T00:11:52.484Z,16.10
2022-12-13T00:14:20.621Z,12.50
2022-12-13T00:16:51.208Z,14.97
2022-12-13T00:19:19.765Z,13.70
2022-12-13T00:21:48.369Z,12.03
2022-12-13T00:24:16.576Z,14.63
2022-12-13T00:26:44.848Z,13.80
2022-12-13T00:29:13.720Z,12.13
2022-12-13T00:34:31.978Z,12.80
2022-12-13T00:37:00.324Z,17.67
2022-12-13T00:39:29.174Z,21.93
2022-12-13T00:41:57.411Z,25.90
2022-12-13T00:44:25.951Z,31.73
2022-12-13T00:46:54.675Z,16.23
2022-12-13T00:49:22.891Z,20.63
2022-12-13T00:51:52.435Z,13.30
2022-12-13T00:54:20.731Z,25.03
2022-12-13T00:56:51.216Z,23.70
2022-12-13T00:59:19.331Z,37.60
2022-12-13T01:01:47.665Z,32.90
2022-12-13T01:04:15.877Z,36.70
2022-12-13T01:06:46.514Z,15.13
2022-12-13T01:09:21.283Z,14.13
2022-12-13T01:11:50.135Z,17.17
2022-12-13T01:14:19.490Z,14.70
2022-12-13T01:16:47.708Z,14.80
2022-12-13T01:19:16.461Z,11.80
2022-12-13T01:21:44.686Z,13.10
2022-12-13T01:24:12.866Z,16.90
2022-12-13T01:26:42.485Z,12.37
2022-12-13T01:29:11.584Z,11.60
2022-12-13T01:31:41.755Z,12.97
2022-12-13T01:34:14.211Z,12.67
2022-12-13T01:36:44.051Z,13.40
2022-12-13T01:39:15.306Z,14.43
2022-12-13T01:41:46.633Z,10.17
2022-12-13T01:44:52.254Z,11.07
2022-12-13T01:47:25.874Z,12.47
2022-12-13T01:49:57.085Z,27.87
2022-12-13T01:52:29.662Z,32.37
2022-12-13T01:55:03.368Z,45.20
2022-12-13T01:57:35.084Z,48.40
2022-12-13T02:00:03.750Z,27.37
2022-12-13T02:02:31.911Z,11.67
2022-12-13T02:05:08.053Z,18.43
2022-12-13T02:07:39.349Z,13.60
2022-12-13T02:10:09.526Z,25.53
2022-12-13T02:12:40.815Z,14.30
2022-12-13T02:15:12.980Z,36.80
2022-12-13T02:17:59.828Z,38.53
2022-12-13T02:20:58.713Z,38.53
2022-12-13T02:24:09.173Z,16.20
2022-12-13T02:26:52.003Z,25.43
2022-12-13T02:29:58.247Z,27.57
2022-12-13T02:32:33.042Z,22.00
2022-12-13T02:35:06.658Z,17.17
2022-12-13T02:37:46.755Z,10.90
2022-12-13T02:40:24.144Z,11.43
2022-12-13T02:42:59.215Z,14.00
2022-12-13T02:45:32.270Z,18.67
2022-12-13T02:48:04.051Z,25.50
2022-12-13T02:50:33.927Z,21.13
2022-12-13T02:53:03.592Z,20.03
2022-12-13T02:55:32.568Z,12.47
2022-12-13T02:58:00.749Z,11.57
2022-12-13T03:00:37.557Z,12.30
2022-12-13T03:03:22.192Z,21.20
2022-12-13T03:06:15.838Z,16.67
2022-12-13T03:08:56.290Z,11.80
2022-12-13T03:11:44.149Z,11.93
2022-12-13T03:14:14.342Z,20.97
2022-12-13T03:16:45.173Z,28.63
2022-12-13T03:19:15.164Z,20.83
2022-12-13T03:21:48.276Z,13.63
2022-12-13T03:24:19.321Z,12.93
2022-12-13T03:26:48.930Z,13.33
2022-12-13T03:29:23.626Z,10.47
2022-12-13T03:31:53.083Z,12.50
2022-12-13T03:34:23.680Z,12.43
2022-12-13T03:36:52.171Z,10.83
2022-12-13T03:39:21.070Z,10.63
2022-12-13T03:41:49.683Z,10.60
2022-12-13T03:44:18.019Z,11.97
2022-12-13T03:46:46.217Z,11.23
2022-12-13T03:49:17.302Z,16.03
2022-12-13T03:51:47.969Z,10.23
2022-12-13T03:54:16.297Z,14.27
2022-12-13T03:56:45.438Z,12.53
2022-12-13T03:59:13.564Z,12.10
2022-12-13T04:01:41.825Z,11.57
2022-12-13T04:04:09.991Z,15.33
2022-12-13T04:06:38.140Z,13.20
2022-12-13T04:09:07.616Z,9.80
2022-12-13T04:11:53.123Z,12.57
2022-12-13T04:14:22.502Z,16.97
2022-12-13T04:16:51.491Z,16.67
2022-12-13T04:19:23.334Z,34.10
2022-12-13T04:21:52.226Z,37.70
2022-12-13T04:24:21.790Z,38.90
2022-12-13T04:27:00.683Z,40.17
2022-12-13T04:29:34.461Z,47.83
2022-12-13T04:32:04.285Z,43.00
2022-12-13T04:34:37.131Z,43.13
2022-12-13T04:37:05.620Z,53.40
2022-12-13T04:39:35.197Z,50.27
2022-12-13T04:42:03.588Z,55.87
2022-12-13T04:44:36.602Z,54.43
2022-12-13T04:47:06.051Z,58.93
2022-12-13T04:49:34.477Z,48.07
2022-12-13T04:52:03.656Z,63.27
2022-12-13T04:54:36.159Z,54.67
2022-12-13T04:57:07.430Z,57.57
2022-12-13T04:59:35.746Z,58.83
2022-12-13T05:02:04.869Z,56.83
2022-12-13T05:04:33.596Z,59.80
2022-12-13T05:07:02.330Z,57.90
2022-12-13T05:09:35.281Z,59.13
2022-12-13T05:12:22.114Z,58.87
2022-12-13T05:14:52.257Z,52.07
2022-12-13T05:17:20.821Z,55.37
2022-12-13T05:19:49.049Z,62.00
2022-12-13T05:22:20.446Z,64.20
2022-12-13T05:24:49.659Z,64.80
2022-12-13T05:27:25.069Z,52.47
2022-12-13T05:30:03.115Z,62.67
2022-12-13T05:32:43.041Z,58.60
2022-12-13T05:35:13.791Z,69.23
2022-12-13T05:37:42.389Z,66.67
2022-12-13T05:40:11.407Z,74.10
2022-12-13T05:42:41.026Z,70.07
2022-12-13T05:45:10.402Z,56.17
2022-12-13T05:47:38.597Z,57.00
2022-12-13T05:50:07.504Z,49.50
2022-12-13T05:52:35.742Z,55.97
2022-12-13T05:55:04.121Z,68.43
2022-12-13T05:57:32.265Z,59.23
2022-12-13T06:00:05.146Z,41.00
2022-12-13T06:02:33.483Z,49.57
2022-12-13T06:05:01.677Z,47.50
2022-12-13T06:07:29.890Z,46.23
2022-12-13T06:10:10.402Z,57.67
2022-12-13T06:12:43.408Z,61.00
2022-12-13T06:15:22.421Z,53.63
2022-12-13T06:17:51.035Z,57.13
2022-12-13T06:20:23.673Z,52.77
2022-12-13T06:22:52.752Z,52.70
2022-12-13T06:25:31.606Z,58.97
2022-12-13T06:28:01.383Z,58.33
2022-12-13T06:30:31.314Z,58.20
2022-12-13T06:32:59.673Z,55.50
2022-12-13T06:35:30.233Z,70.40
2022-12-13T06:38:01.526Z,66.00
2022-12-13T06:40:30.752Z,72.17
2022-12-13T06:42:58.977Z,64.10
2022-12-13T06:45:27.584Z,62.80
2022-12-13T06:47:57.525Z,80.97
2022-12-13T06:50:25.996Z,70.50
2022-12-13T06:52:54.185Z,64.67
2022-12-13T06:55:23.574Z,67.23
2022-12-13T06:57:52.800Z,66.80
2022-12-13T07:00:22.275Z,67.60
2022-12-13T07:02:54.125Z,66.37
2022-12-13T07:05:25.013Z,71.23
2022-12-13T07:07:53.239Z,67.30
2022-12-13T07:10:22.174Z,69.17
2022-12-13T07:12:51.045Z,67.43
2022-12-13T07:15:19.321Z,71.83
2022-12-13T07:17:51.349Z,65.30
2022-12-13T07:20:22.823Z,65.43
2022-12-13T07:22:58.774Z,63.10
2022-12-13T07:25:29.487Z,67.07
2022-12-13T07:28:01.263Z,68.93
2022-12-13T07:30:30.854Z,65.50
2022-12-13T07:32:59.273Z,53.63
2022-12-13T07:35:27.424Z,62.00
2022-12-13T07:37:57.012Z,62.43
2022-12-13T07:40:25.520Z,60.90
2022-12-13T07:42:56.193Z,63.60
2022-12-13T07:45:24.741Z,62.67
2022-12-13T07:47:52.858Z,80.90
2022-12-13T07:50:24.588Z,66.80
2022-12-13T07:52:54.145Z,64.80
2022-12-13T07:55:32.950Z,78.50
2022-12-13T07:58:07.126Z,67.07
2022-12-13T08:00:35.550Z,76.43
2022-12-13T08:03:03.766Z,75.50
2022-12-13T08:05:38.953Z,74.73
2022-12-13T08:08:09.187Z,74.50
2022-12-13T08:10:39.245Z,78.13
2022-12-13T08:13:07.823Z,76.57
2022-12-13T08:15:35.935Z,68.90
2022-12-13T08:18:04.611Z,69.90
2022-12-13T08:20:33.504Z,74.40
2022-12-13T08:23:02.698Z,64.60
2022-12-13T08:25:31.673Z,72.43
2022-12-13T08:28:02.010Z,68.80
2022-12-13T08:30:31.681Z,72.77
2022-12-13T08:32:59.820Z,67.90
2022-12-13T08:35:34.863Z,71.07
2022-12-13T08:38:03.576Z,63.73
2022-12-13T08:40:31.688Z,65.60
2022-12-13T08:43:01.248Z,80.10
2022-12-13T08:45:30.746Z,72.57
2022-12-13T08:48:00.014Z,81.57
2022-12-13T08:50:28.575Z,72.10
2022-12-13T08:52:57.026Z,70.67
2022-12-13T08:55:31.494Z,75.80
2022-12-13T08:58:08.526Z,71.73
2022-12-13T09:00:37.787Z,68.20
2022-12-13T09:03:10.110Z,80.93
2022-12-13T09:05:39.095Z,74.83
2022-12-13T09:08:24.823Z,73.73
2022-12-13T09:11:00.773Z,74.50
2022-12-13T09:13:32.843Z,82.97
2022-12-13T09:16:04.903Z,72.37
2022-12-13T09:18:42.353Z,76.80
2022-12-13T09:21:12.453Z,76.53
2022-12-13T09:23:45.529Z,80.30
2022-12-13T09:26:16.443Z,68.93
2022-12-13T09:28:46.092Z,79.63
2022-12-13T09:31:16.305Z,72.37
2022-12-13T09:33:45.297Z,69.80
2022-12-13T09:36:15.444Z,77.10
2022-12-13T09:38:43.597Z,67.93
2022-12-13T09:41:28.637Z,81.10
2022-12-13T09:44:02.830Z,67.23
2022-12-13T09:46:34.281Z,75.67
2022-12-13T09:49:23.202Z,69.27
2022-12-13T09:52:11.716Z,70.40
2022-12-13T09:54:51.024Z,67.50
2022-12-13T09:57:31.298Z,76.63
2022-12-13T10:00:05.427Z,64.73
2022-12-13T10:02:38.922Z,66.57
2022-12-13T10:05:22.358Z,62.03
2022-12-13T10:07:54.070Z,71.80
2022-12-13T10:10:22.492Z,65.67
2022-12-13T10:12:56.190Z,63.40
2022-12-13T10:15:27.277Z,62.70
2022-12-13T10:17:56.539Z,63.33
2022-12-13T10:20:28.953Z,73.53
2022-12-13T10:23:31.359Z,59.97
2022-12-13T10:25:52.016Z,64.80
2022-12-13T10:28:27.367Z,64.10
2022-12-13T10:30:58.773Z,62.03
2022-12-13T10:33:30.706Z,50.23
2022-12-13T10:36:13.659Z,58.87
2022-12-13T10:38:43.626Z,53.63
2022-12-13T10:41:31.312Z,56.97
2022-12-13T10:44:25.247Z,60.13
2022-12-13T10:47:04.330Z,60.37
2022-12-13T10:49:40.361Z,59.73
2022-12-13T10:52:31.517Z,57.77
2022-12-13T10:55:22.995Z,66.80
2022-12-13T10:57:53.488Z,68.23
2022-12-13T11:00:35.192Z,60.57
2022-12-13T11:03:05.083Z,73.40
2022-12-13T11:05:35.669Z,58.07
2022-12-13T11:08:22.041Z,59.70
2022-12-13T11:10:59.315Z,59.80
2022-12-13T11:13:36.859Z,60.00
2022-12-13T11:16:06.637Z,61.03
2022-12-13T11:18:40.586Z,58.03
2022-12-13T11:21:08.908Z,55.57
2022-12-13T11:23:40.610Z,56.53
2022-12-13T11:26:12.377Z,61.67
2022-12-13T11:29:05.481Z,64.53
2022-12-13T11:31:43.828Z,63.20
2022-12-13T11:34:24.080Z,59.27
2022-12-13T11:36:59.695Z,57.33
2022-12-13T11:39:32.135Z,61.77
2022-12-13T11:42:05.590Z,60.33
2022-12-13T11:44:47.720Z,57.63
2022-12-13T11:47:24.212Z,58.47
2022-12-13T11:49:54.444Z,63.30
2022-12-13T11:52:28.402Z,57.77
2022-12-13T11:55:01.899Z,58.87
2022-12-13T11:57:41.008Z,60.53
2022-12-13T12:00:33.530Z,58.70
2022-12-13T12:03:18.597Z,58.90
2022-12-13T12:05:55.835Z,54.27
2022-12-13T12:08:43.473Z,64.77
2022-12-13T12:11:18.491Z,53.37
2022-12-13T12:13:52.307Z,56.57
2022-12-13T12:16:31.925Z,59.17
2022-12-13T12:19:01.147Z,68.03
2022-12-13T12:24:36.297Z,57.57
2022-12-13T12:27:22.455Z,69.73
2022-12-13T12:30:23.863Z,70.30
2022-12-13T12:33:04.030Z,54.63
2022-12-13T12:35:57.114Z,62.23
2022-12-13T12:39:02.124Z,80.70
2022-12-13T12:41:45.819Z,59.30
2022-12-13T12:44:30.862Z,60.37
2022-12-13T12:47:36.194Z,62.07
2022-12-13T12:50:21.007Z,54.97
2022-12-13T12:53:00.860Z,63.20
2022-12-13T12:55:41.420Z,61.07
2022-12-13T12:58:18.918Z,73.90
2022-12-13T13:00:57.626Z,55.83
2022-12-13T13:03:27.122Z,58.10
2022-12-13T13:06:02.640Z,58.40
2022-12-13T13:08:39.388Z,56.13
2022-12-13T13:11:24.351Z,62.37
2022-12-13T13:14:03.601Z,62.07
2022-12-13T13:16:35.559Z,63.33
2022-12-13T13:19:05.450Z,60.73
2022-12-13T13:21:46.246Z,60.13
2022-12-13T13:24:20.559Z,53.60
2022-12-13T13:26:52.385Z,60.73
2022-12-13T13:29:43.476Z,54.60
2022-12-13T13:32:31.168Z,58.10
2022-12-13T13:35:32.481Z,63.33
2022-12-13T13:38:03.878Z,50.93
2022-12-13T13:40:35.552Z,60.90
2022-12-13T13:43:13.941Z,60.90
2022-12-13T13:46:01.197Z,59.40
2022-12-13T13:48:43.229Z,55.93
2022-12-13T13:52:08.782Z,59.93
2022-12-13T13:55:08.307Z,62.60
2022-12-13T13:58:22.029Z,60.70
2022-12-13T14:01:16.399Z,56.57
2022-12-13T14:04:31.662Z,75.73
2022-12-13T14:07:32.455Z,54.63
2022-12-13T14:10:16.491Z,54.67
2022-12-13T14:13:45.149Z,72.00
2022-12-13T14:16:46.997Z,63.00
2022-12-13T14:19:56.493Z,55.53
2022-12-13T14:22:34.315Z,52.53
2022-12-13T14:25:25.571Z,54.80
2022-12-13T14:27:57.538Z,56.50
2022-12-13T14:30:29.202Z,56.60
2022-12-13T14:32:59.434Z,46.47
2022-12-13T14:35:29.782Z,57.83
2022-12-13T14:38:00.314Z,57.83
2022-12-13T14:40:32.010Z,54.93
2022-12-13T14:43:01.206Z,61.77
2022-12-13T14:45:31.404Z,62.80
2022-12-13T14:48:02.650Z,62.60
2022-12-13T14:50:35.776Z,89.47
2022-12-13T14:53:05.198Z,72.20
2022-12-13T14:55:36.564Z,65.67
2022-12-13T14:58:16.533Z,58.97
2022-12-13T15:00:45.992Z,56.77
2022-12-13T15:03:25.294Z,56.93
2022-12-13T15:05:57.122Z,59.40
2022-12-13T15:08:26.026Z,64.00
2022-12-13T15:10:56.144Z,67.03
2022-12-13T15:13:30.666Z,64.63
2022-12-13T15:16:01.893Z,59.33
2022-12-13T15:18:40.190Z,57.40
2022-12-13T15:21:22.645Z,56.23
2022-12-13T15:23:51.626Z,67.57
2022-12-13T15:26:28.071Z,56.17
2022-12-13T15:29:00.564Z,59.30
2022-12-13T15:31:29.116Z,70.03
2022-12-13T15:34:29.380Z,57.20
2022-12-13T15:37:01.079Z,58.43
2022-12-13T15:39:31.149Z,51.87
2022-12-13T15:41:59.932Z,65.03
2022-12-13T15:44:31.173Z,55.13
2022-12-13T15:47:04.109Z,59.73
2022-12-13T15:49:36.634Z,55.80
2022-12-13T15:52:06.187Z,62.63
2022-12-13T15:54:35.081Z,61.67
2022-12-13T15:57:14.426Z,57.57
2022-12-13T15:59:43.746Z,69.50
2022-12-13T16:02:17.314Z,63.00
2022-12-13T16:04:47.123Z,53.70
2022-12-13T16:07:24.463Z,60.27
2022-12-13T16:09:54.945Z,62.90
2022-12-13T16:12:26.519Z,59.40
2022-12-13T16:15:09.443Z,64.53
2022-12-13T16:17:37.980Z,63.63
2022-12-13T16:20:14.529Z,51.37
2022-12-13T16:22:43.343Z,59.40
2022-12-13T16:25:13.625Z,57.80
2022-12-13T16:27:42.108Z,60.43
2022-12-13T16:30:24.883Z,57.40
2022-12-13T16:33:18.095Z,52.93
2022-12-13T16:35:43.179Z,57.50
2022-12-13T16:38:12.847Z,49.30
2022-12-13T16:40:57.240Z,59.40
2022-12-13T16:43:33.833Z,53.57
2022-12-13T16:47:12.705Z,57.70
2022-12-13T16:48:53.825Z,63.60
2022-12-13T16:51:24.118Z,64.60
2022-12-13T16:53:52.274Z,72.47
2022-12-13T16:56:21.809Z,86.40
2022-12-13T16:58:50.844Z,69.37
2022-12-13T17:01:21.738Z,62.77
2022-12-13T17:03:51.072Z,55.30
2022-12-13T17:06:24.832Z,63.03
2022-12-13T17:08:53.073Z,60.40
2022-12-13T17:11:21.219Z,66.10
2022-12-13T17:13:49.754Z,62.97
2022-12-13T17:16:17.982Z,61.63
2022-12-13T17:18:46.379Z,59.17
2022-12-13T17:21:14.507Z,65.03
2022-12-13T17:23:44.271Z,62.50
2022-12-13T17:26:13.313Z,56.87
2022-12-13T17:28:41.565Z,60.47
2022-12-13T17:31:12.182Z,56.87
2022-12-13T17:33:40.485Z,60.67
2022-12-13T17:36:10.372Z,69.53
2022-12-13T17:38:39.451Z,72.03
2022-12-13T17:41:08.977Z,72.67
2022-12-13T17:43:37.610Z,67.20
2022-12-13T17:46:08.489Z,62.17
2022-12-13T17:48:40.699Z,61.33
2022-12-13T17:51:10.086Z,66.07
2022-12-13T17:53:39.888Z,60.40
2022-12-13T17:56:12.343Z,57.77
2022-12-13T17:58:41.154Z,58.70
2022-12-13T18:01:13.966Z,59.43
2022-12-13T18:03:42.586Z,65.93
2022-12-13T18:06:11.096Z,66.13
2022-12-13T18:08:40.625Z,53.00
2022-12-13T18:13:58.745Z,58.60
2022-12-13T18:16:35.860Z,57.30
2022-12-13T18:19:06.047Z,57.70
2022-12-13T18:21:35.411Z,58.73
2022-12-13T18:24:04.037Z,54.00
2022-12-13T18:26:39.437Z,82.93
2022-12-13T18:29:07.681Z,61.47
2022-12-13T18:31:35.870Z,65.87
2022-12-13T18:34:05.040Z,55.20
2022-12-13T18:36:33.275Z,74.33
2022-12-13T18:39:01.970Z,65.30
2022-12-13T18:41:31.801Z,53.70
2022-12-13T18:44:03.091Z,62.13
2022-12-13T18:46:33.380Z,67.53
2022-12-13T18:49:01.982Z,61.17
2022-12-13T18:51:30.172Z,64.80
2022-12-13T18:53:58.551Z,56.50
2022-12-13T18:56:26.737Z,64.53
2022-12-13T18:58:55.614Z,64.03
2022-12-13T19:01:27.142Z,61.43
2022-12-13T19:03:56.119Z,63.03
2022-12-13T19:06:25.840Z,66.07
2022-12-13T19:08:56.351Z,66.27
2022-12-13T19:11:25.983Z,66.60
2022-12-13T19:13:54.908Z,58.57
2022-12-13T19:16:25.523Z,64.77
2022-12-13T19:18:54.093Z,64.93
2022-12-13T19:21:23.777Z,56.47
2022-12-13T19:23:57.279Z,50.47
2022-12-13T19:26:26.610Z,62.33
2022-12-13T19:28:56.113Z,58.57
2022-12-13T19:31:30.986Z,65.70
2022-12-13T19:34:00.848Z,55.00
2022-12-13T19:36:33.405Z,52.57
2022-12-13T19:39:01.623Z,58.33
2022-12-13T19:41:32.294Z,67.80
2022-12-13T19:44:04.471Z,63.33
2022-12-13T19:46:34.408Z,62.30
2022-12-13T19:49:02.667Z,52.63
2022-12-13T19:51:35.871Z,64.53
2022-12-13T19:54:07.665Z,69.07
2022-12-13T19:56:35.798Z,54.27
2022-12-13T19:59:03.986Z,66.80
2022-12-13T20:01:33.567Z,61.63
2022-12-13T20:04:01.831Z,59.63
2022-12-13T20:06:30.262Z,59.03
2022-12-13T20:08:58.444Z,60.33
2022-12-13T20:11:26.711Z,64.80
2022-12-13T20:13:56.313Z,57.57
2022-12-13T20:16:26.653Z,53.90
2022-12-13T20:18:57.662Z,56.50
2022-12-13T20:21:27.476Z,58.63
2022-12-13T20:23:56.232Z,52.27
2022-12-13T20:26:26.201Z,60.57
2022-12-13T20:28:54.512Z,60.00
2022-12-13T20:31:24.362Z,50.43
2022-12-13T20:33:56.909Z,57.33
2022-12-13T20:36:27.209Z,54.57
2022-12-13T20:38:57.068Z,56.37
2022-12-13T20:41:26.408Z,53.23
2022-12-13T20:43:55.566Z,49.30
2022-12-13T20:46:24.434Z,48.97
2022-12-13T20:48:53.100Z,52.97
2022-12-13T20:51:24.621Z,50.67
2022-12-13T20:53:54.210Z,58.70
2022-12-13T20:56:24.389Z,51.63
2022-12-13T20:58:52.691Z,55.77
2022-12-13T21:01:22.863Z,56.07
2022-12-13T21:03:51.438Z,54.73
2022-12-13T21:06:19.599Z,54.10
2022-12-13T21:08:55.362Z,66.03
2022-12-13T21:11:26.440Z,61.53
2022-12-13T21:13:59.025Z,68.60
2022-12-13T21:16:32.371Z,60.20
2022-12-13T21:19:01.824Z,58.73
2022-12-13T21:21:31.078Z,67.90
2022-12-13T21:24:00.743Z,61.43
2022-12-13T21:26:34.973Z,57.27
2022-12-13T21:29:06.488Z,66.90
2022-12-13T21:31:35.891Z,65.80
2022-12-13T21:34:05.285Z,63.67
2022-12-13T21:36:34.819Z,53.70
2022-12-13T21:39:12.901Z,54.97
2022-12-13T21:41:41.533Z,56.57
2022-12-13T21:44:11.960Z,64.63
2022-12-13T21:47:22.286Z,56.80
2022-12-13T21:49:28.969Z,56.83
2022-12-13T21:51:57.194Z,58.53
2022-12-13T21:54:26.837Z,62.77
2022-12-13T21:57:12.659Z,67.13
2022-12-13T21:59:43.250Z,59.50
2022-12-13T22:02:15.968Z,55.37
2022-12-13T22:04:46.365Z,55.70
2022-12-13T22:07:16.824Z,49.83
2022-12-13T22:09:48.013Z,54.10
2022-12-13T22:12:23.178Z,50.30
2022-12-13T22:14:52.067Z,48.97
2022-12-13T22:17:24.981Z,47.23
2022-12-13T22:19:55.544Z,44.07
2022-12-13T22:22:25.347Z,50.27
2022-12-13T22:24:55.303Z,50.30
2022-12-13T22:27:25.432Z,47.33
2022-12-13T22:29:56.882Z,47.27
2022-12-13T22:32:26.394Z,52.50
2022-12-13T22:34:54.747Z,50.87
2022-12-13T22:37:23.600Z,50.70
2022-12-13T22:39:51.808Z,47.23
2022-12-13T22:42:21.312Z,61.83
2022-12-13T22:44:49.473Z,63.53
2022-12-13T22:47:25.596Z,57.20
2022-12-13T22:49:53.881Z,67.63
2022-12-13T22:52:22.093Z,57.73
2022-12-13T22:54:50.225Z,78.40
2022-12-13T22:57:18.384Z,63.57
2022-12-13T22:59:47.917Z,57.60
2022-12-13T23:02:16.101Z,64.93
2022-12-13T23:04:44.392Z,54.27
2022-12-13T23:07:12.607Z,56.30
2022-12-13T23:09:40.748Z,56.60
2022-12-13T23:12:28.034Z,52.17
2022-12-13T23:14:57.657Z,52.43
2022-12-13T23:17:25.806Z,54.33
2022-12-13T23:19:53.955Z,51.10
2022-12-13T23:22:23.137Z,50.87
2022-12-13T23:24:51.558Z,51.87
2022-12-13T23:27:21.104Z,56.87
2022-12-13T23:29:49.496Z,50.07
2022-12-13T23:32:19.400Z,46.80
2022-12-13T23:34:47.606Z,56.27
2022-12-13T23:37:15.742Z,50.73
2022-12-13T23:39:44.014Z,52.97
2022-12-13T23:42:12.163Z,48.40
2022-12-13T23:44:40.380Z,50.13
2022-12-13T23:47:08.544Z,46.97
2022-12-13T23:49:38.010Z,48.37
2022-12-13T23:52:06.198Z,49.30
2022-12-13T23:54:34.356Z,48.03
2022-12-13T23:57:02.479Z,50.40
2022-12-13T23:59:31.083Z,46.50
